sensor_id;sensor_type;location;lat;lon;timestamp;P1;durP1;ratioP1;P2;durP2;ratioP2
12135;SDS011;6131;56.420;15.548;2022-09-29T00:01:29;1.53;;;0.47;;
12135;SDS011;6131;56.420;15.548;2022-09-29T00:03:55;1.30;;;0.47;;
12135;SDS011;6131;56.420;15.548;2022-09-29T00:06:21;1.87;;;0.50;;
12135;SDS011;6131;56.420;15.548;2022-09-29T00:08:47;1.20;;;0.60;;
12135;SDS011;6131;56.420;15.548;2022-09-29T00:11:15;2.60;;;0.60;;
12135;SDS011;6131;56.420;15.548;2022-09-29T00:13:41;0.70;;;0.57;;
12135;SDS011;6131;56.420;15.548;2022-09-29T00:16:07;0.80;;;0.70;;
12135;SDS011;6131;56.420;15.548;2022-09-29T00:18:34;0.80;;;0.60;;
12135;SDS011;6131;56.420;15.548;2022-09-29T00:23:26;1.60;;;0.50;;
12135;SDS011;6131;56.420;15.548;2022-09-29T00:26:06;0.47;;;0.40;;
12135;SDS011;6131;56.420;15.548;2022-09-29T00:28:33;0.97;;;0.60;;
12135;SDS011;6131;56.420;15.548;2022-09-29T00:30:59;1.90;;;0.50;;
12135;SDS011;6131;56.420;15.548;2022-09-29T00:33:29;1.30;;;0.60;;
12135;SDS011;6131;56.420;15.548;2022-09-29T00:35:59;2.00;;;0.70;;
12135;SDS011;6131;56.420;15.548;2022-09-29T00:38:26;2.93;;;0.60;;
12135;SDS011;6131;56.420;15.548;2022-09-29T00:40:53;1.07;;;0.43;;
12135;SDS011;6131;56.420;15.548;2022-09-29T00:43:20;1.47;;;0.60;;
12135;SDS011;6131;56.420;15.548;2022-09-29T00:45:47;0.73;;;0.60;;
12135;SDS011;6131;56.420;15.548;2022-09-29T00:48:15;0.50;;;0.43;;
12135;SDS011;6131;56.420;15.548;2022-09-29T00:53:09;0.60;;;0.50;;
12135;SDS011;6131;56.420;15.548;2022-09-29T00:56:18;0.77;;;0.40;;
12135;SDS011;6131;56.420;15.548;2022-09-29T00:58:32;2.47;;;0.47;;
12135;SDS011;6131;56.420;15.548;2022-09-29T01:00:59;1.03;;;0.70;;
12135;SDS011;6131;56.420;15.548;2022-09-29T01:03:27;0.87;;;0.60;;
12135;SDS011;6131;56.420;15.548;2022-09-29T01:05:55;2.73;;;0.50;;
12135;SDS011;6131;56.420;15.548;2022-09-29T01:10:49;0.50;;;0.43;;
12135;SDS011;6131;56.420;15.548;2022-09-29T01:13:15;0.50;;;0.40;;
12135;SDS011;6131;56.420;15.548;2022-09-29T01:15:42;0.90;;;0.53;;
12135;SDS011;6131;56.420;15.548;2022-09-29T01:18:08;2.53;;;0.50;;
12135;SDS011;6131;56.420;15.548;2022-09-29T01:20:36;1.27;;;0.50;;
12135;SDS011;6131;56.420;15.548;2022-09-29T01:31:06;1.53;;;0.30;;
12135;SDS011;6131;56.420;15.548;2022-09-29T01:33:42;0.83;;;0.40;;
12135;SDS011;6131;56.420;15.548;2022-09-29T01:39:12;1.10;;;0.20;;
12135;SDS011;6131;56.420;15.548;2022-09-29T01:41:49;2.20;;;0.40;;
12135;SDS011;6131;56.420;15.548;2022-09-29T01:44:23;3.03;;;0.50;;
12135;SDS011;6131;56.420;15.548;2022-09-29T01:49:37;0.47;;;0.27;;
12135;SDS011;6131;56.420;15.548;2022-09-29T01:52:18;1.33;;;0.30;;
12135;SDS011;6131;56.420;15.548;2022-09-29T01:54:58;2.83;;;0.40;;
12135;SDS011;6131;56.420;15.548;2022-09-29T01:57:31;1.77;;;0.40;;
12135;SDS011;6131;56.420;15.548;2022-09-29T02:00:01;0.60;;;0.30;;
12135;SDS011;6131;56.420;15.548;2022-09-29T02:02:31;0.53;;;0.30;;
12135;SDS011;6131;56.420;15.548;2022-09-29T02:05:02;0.80;;;0.30;;
12135;SDS011;6131;56.420;15.548;2022-09-29T02:07:39;0.57;;;0.23;;
12135;SDS011;6131;56.420;15.548;2022-09-29T02:10:09;1.17;;;0.30;;
12135;SDS011;6131;56.420;15.548;2022-09-29T02:12:37;0.53;;;0.20;;
12135;SDS011;6131;56.420;15.548;2022-09-29T02:15:04;0.50;;;0.30;;
12135;SDS011;6131;56.420;15.548;2022-09-29T02:17:38;0.90;;;0.47;;
12135;SDS011;6131;56.420;15.548;2022-09-29T02:20:06;0.50;;;0.37;;
12135;SDS011;6131;56.420;15.548;2022-09-29T02:22:33;0.53;;;0.43;;
12135;SDS011;6131;56.420;15.548;2022-09-29T02:25:00;2.23;;;0.40;;
12135;SDS011;6131;56.420;15.548;2022-09-29T02:27:26;0.87;;;0.50;;
12135;SDS011;6131;56.420;15.548;2022-09-29T02:29:53;2.57;;;0.50;;
12135;SDS011;6131;56.420;15.548;2022-09-29T02:32:20;0.80;;;0.40;;
12135;SDS011;6131;56.420;15.548;2022-09-29T02:34:47;2.47;;;0.33;;
12135;SDS011;6131;56.420;15.548;2022-09-29T02:45:05;1.70;;;0.60;;
12135;SDS011;6131;56.420;15.548;2022-09-29T02:47:45;0.40;;;0.30;;
12135;SDS011;6131;56.420;15.548;2022-09-29T02:56:05;1.00;;;0.50;;
12135;SDS011;6131;56.420;15.548;2022-09-29T02:58:37;0.40;;;0.30;;
12135;SDS011;6131;56.420;15.548;2022-09-29T03:01:04;0.90;;;0.43;;
12135;SDS011;6131;56.420;15.548;2022-09-29T03:03:31;0.73;;;0.40;;
12135;SDS011;6131;56.420;15.548;2022-09-29T03:05:57;0.47;;;0.20;;
12135;SDS011;6131;56.420;15.548;2022-09-29T03:08:23;0.60;;;0.43;;
12135;SDS011;6131;56.420;15.548;2022-09-29T03:10:49;0.50;;;0.30;;
12135;SDS011;6131;56.420;15.548;2022-09-29T03:13:16;0.60;;;0.40;;
12135;SDS011;6131;56.420;15.548;2022-09-29T03:15:42;3.20;;;0.60;;
12135;SDS011;6131;56.420;15.548;2022-09-29T03:18:08;0.80;;;0.53;;
12135;SDS011;6131;56.420;15.548;2022-09-29T03:20:34;1.03;;;0.53;;
12135;SDS011;6131;56.420;15.548;2022-09-29T03:23:00;0.50;;;0.40;;
12135;SDS011;6131;56.420;15.548;2022-09-29T03:25:26;0.50;;;0.40;;
12135;SDS011;6131;56.420;15.548;2022-09-29T03:27:52;0.50;;;0.50;;
12135;SDS011;6131;56.420;15.548;2022-09-29T03:30:19;0.63;;;0.50;;
12135;SDS011;6131;56.420;15.548;2022-09-29T03:32:47;1.43;;;0.63;;
12135;SDS011;6131;56.420;15.548;2022-09-29T03:35:13;2.30;;;0.70;;
12135;SDS011;6131;56.420;15.548;2022-09-29T03:37:39;3.60;;;0.57;;
12135;SDS011;6131;56.420;15.548;2022-09-29T03:40:05;0.50;;;0.50;;
12135;SDS011;6131;56.420;15.548;2022-09-29T03:42:31;0.50;;;0.40;;
12135;SDS011;6131;56.420;15.548;2022-09-29T03:44:57;1.67;;;0.60;;
12135;SDS011;6131;56.420;15.548;2022-09-29T03:47:23;1.67;;;0.40;;
12135;SDS011;6131;56.420;15.548;2022-09-29T03:49:50;1.70;;;0.60;;
12135;SDS011;6131;56.420;15.548;2022-09-29T03:52:16;3.57;;;0.60;;
12135;SDS011;6131;56.420;15.548;2022-09-29T03:54:42;1.03;;;0.50;;
12135;SDS011;6131;56.420;15.548;2022-09-29T03:57:08;0.80;;;0.60;;
12135;SDS011;6131;56.420;15.548;2022-09-29T03:59:35;0.80;;;0.60;;
12135;SDS011;6131;56.420;15.548;2022-09-29T04:02:01;1.77;;;0.50;;
12135;SDS011;6131;56.420;15.548;2022-09-29T04:04:27;0.40;;;0.37;;
12135;SDS011;6131;56.420;15.548;2022-09-29T04:06:53;0.70;;;0.50;;
12135;SDS011;6131;56.420;15.548;2022-09-29T04:09:19;1.03;;;0.50;;
12135;SDS011;6131;56.420;15.548;2022-09-29T04:11:45;0.73;;;0.50;;
12135;SDS011;6131;56.420;15.548;2022-09-29T04:14:11;0.93;;;0.47;;
12135;SDS011;6131;56.420;15.548;2022-09-29T04:16:37;2.07;;;0.40;;
12135;SDS011;6131;56.420;15.548;2022-09-29T04:19:03;0.97;;;0.40;;
12135;SDS011;6131;56.420;15.548;2022-09-29T04:21:29;0.50;;;0.30;;
12135;SDS011;6131;56.420;15.548;2022-09-29T04:23:55;1.37;;;0.50;;
12135;SDS011;6131;56.420;15.548;2022-09-29T04:26:21;0.40;;;0.40;;
12135;SDS011;6131;56.420;15.548;2022-09-29T04:28:47;0.60;;;0.30;;
12135;SDS011;6131;56.420;15.548;2022-09-29T04:31:13;1.90;;;0.43;;
12135;SDS011;6131;56.420;15.548;2022-09-29T04:33:39;0.40;;;0.40;;
12135;SDS011;6131;56.420;15.548;2022-09-29T04:36:05;0.50;;;0.40;;
12135;SDS011;6131;56.420;15.548;2022-09-29T04:38:31;0.40;;;0.30;;
12135;SDS011;6131;56.420;15.548;2022-09-29T04:40:58;2.07;;;0.40;;
12135;SDS011;6131;56.420;15.548;2022-09-29T04:43:24;0.40;;;0.30;;
12135;SDS011;6131;56.420;15.548;2022-09-29T04:45:50;0.53;;;0.30;;
12135;SDS011;6131;56.420;15.548;2022-09-29T04:48:16;0.40;;;0.20;;
12135;SDS011;6131;56.420;15.548;2022-09-29T04:50:42;0.40;;;0.30;;
12135;SDS011;6131;56.420;15.548;2022-09-29T04:53:08;0.50;;;0.27;;
12135;SDS011;6131;56.420;15.548;2022-09-29T04:55:36;0.50;;;0.30;;
12135;SDS011;6131;56.420;15.548;2022-09-29T04:58:02;0.50;;;0.40;;
12135;SDS011;6131;56.420;15.548;2022-09-29T05:00:28;0.50;;;0.27;;
12135;SDS011;6131;56.420;15.548;2022-09-29T05:02:55;0.43;;;0.20;;
12135;SDS011;6131;56.420;15.548;2022-09-29T05:05:22;0.40;;;0.20;;
12135;SDS011;6131;56.420;15.548;2022-09-29T05:07:48;2.10;;;0.30;;
12135;SDS011;6131;56.420;15.548;2022-09-29T05:10:14;0.40;;;0.37;;
12135;SDS011;6131;56.420;15.548;2022-09-29T05:12:40;0.40;;;0.23;;
12135;SDS011;6131;56.420;15.548;2022-09-29T05:15:06;1.50;;;0.30;;
12135;SDS011;6131;56.420;15.548;2022-09-29T05:17:32;1.00;;;0.37;;
12135;SDS011;6131;56.420;15.548;2022-09-29T05:19:58;1.00;;;0.70;;
12135;SDS011;6131;56.420;15.548;2022-09-29T05:22:24;0.60;;;0.50;;
12135;SDS011;6131;56.420;15.548;2022-09-29T05:24:51;0.57;;;0.50;;
12135;SDS011;6131;56.420;15.548;2022-09-29T05:27:17;0.93;;;0.50;;
12135;SDS011;6131;56.420;15.548;2022-09-29T05:29:43;0.73;;;0.53;;
12135;SDS011;6131;56.420;15.548;2022-09-29T05:32:09;0.63;;;0.60;;
12135;SDS011;6131;56.420;15.548;2022-09-29T05:34:36;1.73;;;0.60;;
12135;SDS011;6131;56.420;15.548;2022-09-29T05:37:02;0.50;;;0.50;;
12135;SDS011;6131;56.420;15.548;2022-09-29T05:39:29;1.10;;;0.60;;
12135;SDS011;6131;56.420;15.548;2022-09-29T05:41:58;1.83;;;0.57;;
12135;SDS011;6131;56.420;15.548;2022-09-29T05:44:24;0.70;;;0.70;;
12135;SDS011;6131;56.420;15.548;2022-09-29T05:46:50;1.57;;;0.70;;
12135;SDS011;6131;56.420;15.548;2022-09-29T05:49:16;0.70;;;0.60;;
12135;SDS011;6131;56.420;15.548;2022-09-29T05:51:43;0.67;;;0.60;;
12135;SDS011;6131;56.420;15.548;2022-09-29T05:54:09;0.90;;;0.70;;
12135;SDS011;6131;56.420;15.548;2022-09-29T05:56:35;0.80;;;0.80;;
12135;SDS011;6131;56.420;15.548;2022-09-29T05:59:01;0.90;;;0.70;;
12135;SDS011;6131;56.420;15.548;2022-09-29T06:01:27;1.13;;;0.70;;
12135;SDS011;6131;56.420;15.548;2022-09-29T06:03:53;0.83;;;0.70;;
12135;SDS011;6131;56.420;15.548;2022-09-29T06:06:21;0.97;;;0.80;;
12135;SDS011;6131;56.420;15.548;2022-09-29T06:08:47;1.17;;;0.87;;
12135;SDS011;6131;56.420;15.548;2022-09-29T06:11:15;1.10;;;0.70;;
12135;SDS011;6131;56.420;15.548;2022-09-29T06:13:44;1.00;;;0.90;;
12135;SDS011;6131;56.420;15.548;2022-09-29T06:16:11;2.50;;;0.80;;
12135;SDS011;6131;56.420;15.548;2022-09-29T06:18:37;1.20;;;1.10;;
12135;SDS011;6131;56.420;15.548;2022-09-29T06:21:07;1.30;;;0.83;;
12135;SDS011;6131;56.420;15.548;2022-09-29T06:23:33;1.27;;;1.00;;
12135;SDS011;6131;56.420;15.548;2022-09-29T06:26:00;1.47;;;0.80;;
12135;SDS011;6131;56.420;15.548;2022-09-29T06:28:28;1.90;;;1.00;;
12135;SDS011;6131;56.420;15.548;2022-09-29T06:30:58;1.27;;;1.00;;
12135;SDS011;6131;56.420;15.548;2022-09-29T06:33:25;1.57;;;1.20;;
12135;SDS011;6131;56.420;15.548;2022-09-29T06:35:51;1.77;;;1.00;;
12135;SDS011;6131;56.420;15.548;2022-09-29T06:38:35;1.13;;;1.00;;
12135;SDS011;6131;56.420;15.548;2022-09-29T06:41:01;1.13;;;1.03;;
12135;SDS011;6131;56.420;15.548;2022-09-29T06:43:27;1.43;;;1.20;;
12135;SDS011;6131;56.420;15.548;2022-09-29T06:45:53;1.17;;;1.00;;
12135;SDS011;6131;56.420;15.548;2022-09-29T06:48:19;0.83;;;0.83;;
12135;SDS011;6131;56.420;15.548;2022-09-29T06:50:45;1.27;;;1.00;;
12135;SDS011;6131;56.420;15.548;2022-09-29T06:53:12;1.00;;;0.90;;
12135;SDS011;6131;56.420;15.548;2022-09-29T06:55:38;1.10;;;1.00;;
12135;SDS011;6131;56.420;15.548;2022-09-29T06:58:04;1.77;;;0.90;;
12135;SDS011;6131;56.420;15.548;2022-09-29T07:00:30;1.47;;;0.80;;
12135;SDS011;6131;56.420;15.548;2022-09-29T07:02:57;1.60;;;0.90;;
12135;SDS011;6131;56.420;15.548;2022-09-29T07:05:23;0.87;;;0.80;;
12135;SDS011;6131;56.420;15.548;2022-09-29T07:07:49;1.47;;;0.90;;
12135;SDS011;6131;56.420;15.548;2022-09-29T07:10:15;2.97;;;0.90;;
12135;SDS011;6131;56.420;15.548;2022-09-29T07:12:41;0.80;;;0.80;;
12135;SDS011;6131;56.420;15.548;2022-09-29T07:15:11;0.63;;;0.63;;
12135;SDS011;6131;56.420;15.548;2022-09-29T07:17:37;1.00;;;0.70;;
12135;SDS011;6131;56.420;15.548;2022-09-29T07:20:03;1.50;;;0.80;;
12135;SDS011;6131;56.420;15.548;2022-09-29T07:22:29;2.30;;;1.03;;
12135;SDS011;6131;56.420;15.548;2022-09-29T07:24:55;1.10;;;0.93;;
12135;SDS011;6131;56.420;15.548;2022-09-29T07:27:21;1.00;;;0.83;;
12135;SDS011;6131;56.420;15.548;2022-09-29T07:29:48;1.53;;;0.90;;
12135;SDS011;6131;56.420;15.548;2022-09-29T07:32:14;0.83;;;0.80;;
12135;SDS011;6131;56.420;15.548;2022-09-29T07:34:40;1.00;;;0.83;;
12135;SDS011;6131;56.420;15.548;2022-09-29T07:37:06;2.27;;;1.10;;
12135;SDS011;6131;56.420;15.548;2022-09-29T07:39:32;1.53;;;0.90;;
12135;SDS011;6131;56.420;15.548;2022-09-29T07:41:58;1.00;;;0.90;;
12135;SDS011;6131;56.420;15.548;2022-09-29T07:44:24;1.40;;;0.90;;
12135;SDS011;6131;56.420;15.548;2022-09-29T07:46:50;1.87;;;0.83;;
12135;SDS011;6131;56.420;15.548;2022-09-29T07:49:16;1.23;;;0.90;;
12135;SDS011;6131;56.420;15.548;2022-09-29T07:51:42;1.80;;;0.90;;
12135;SDS011;6131;56.420;15.548;2022-09-29T07:54:08;1.10;;;0.80;;
12135;SDS011;6131;56.420;15.548;2022-09-29T07:56:34;0.70;;;0.70;;
12135;SDS011;6131;56.420;15.548;2022-09-29T07:59:00;1.37;;;0.70;;
12135;SDS011;6131;56.420;15.548;2022-09-29T08:01:27;0.80;;;0.60;;
12135;SDS011;6131;56.420;15.548;2022-09-29T08:03:54;0.80;;;0.70;;
12135;SDS011;6131;56.420;15.548;2022-09-29T08:06:20;1.03;;;0.70;;
12135;SDS011;6131;56.420;15.548;2022-09-29T08:08:47;0.70;;;0.60;;
12135;SDS011;6131;56.420;15.548;2022-09-29T08:11:14;0.83;;;0.70;;
12135;SDS011;6131;56.420;15.548;2022-09-29T08:13:41;2.53;;;1.00;;
12135;SDS011;6131;56.420;15.548;2022-09-29T08:16:08;2.63;;;0.90;;
12135;SDS011;6131;56.420;15.548;2022-09-29T08:18:35;1.33;;;0.93;;
12135;SDS011;6131;56.420;15.548;2022-09-29T08:21:02;2.73;;;1.00;;
12135;SDS011;6131;56.420;15.548;2022-09-29T08:23:28;1.30;;;1.00;;
12135;SDS011;6131;56.420;15.548;2022-09-29T08:26:05;2.07;;;1.20;;
12135;SDS011;6131;56.420;15.548;2022-09-29T08:28:32;3.60;;;1.20;;
12135;SDS011;6131;56.420;15.548;2022-09-29T08:31:06;1.47;;;1.13;;
12135;SDS011;6131;56.420;15.548;2022-09-29T08:33:32;1.97;;;1.30;;
12135;SDS011;6131;56.420;15.548;2022-09-29T08:35:59;3.77;;;1.30;;
12135;SDS011;6131;56.420;15.548;2022-09-29T08:38:25;3.83;;;1.13;;
12135;SDS011;6131;56.420;15.548;2022-09-29T08:40:52;1.20;;;1.00;;
12135;SDS011;6131;56.420;15.548;2022-09-29T08:43:24;1.27;;;1.07;;
12135;SDS011;6131;56.420;15.548;2022-09-29T08:46:00;2.47;;;1.30;;
12135;SDS011;6131;56.420;15.548;2022-09-29T08:48:28;1.83;;;1.10;;
12135;SDS011;6131;56.420;15.548;2022-09-29T08:50:57;2.13;;;1.30;;
12135;SDS011;6131;56.420;15.548;2022-09-29T08:53:24;1.70;;;1.40;;
12135;SDS011;6131;56.420;15.548;2022-09-29T08:56:14;1.97;;;1.43;;
12135;SDS011;6131;56.420;15.548;2022-09-29T08:58:37;1.73;;;1.60;;
12135;SDS011;6131;56.420;15.548;2022-09-29T09:04:23;5.10;;;1.77;;
12135;SDS011;6131;56.420;15.548;2022-09-29T09:11:52;2.93;;;1.83;;
12135;SDS011;6131;56.420;15.548;2022-09-29T09:22:00;3.10;;;2.10;;
12135;SDS011;6131;56.420;15.548;2022-09-29T09:24:43;2.20;;;1.90;;
12135;SDS011;6131;56.420;15.548;2022-09-29T09:27:14;2.63;;;1.90;;
12135;SDS011;6131;56.420;15.548;2022-09-29T09:29:42;4.83;;;2.00;;
12135;SDS011;6131;56.420;15.548;2022-09-29T09:32:13;2.87;;;2.00;;
12135;SDS011;6131;56.420;15.548;2022-09-29T09:34:41;2.10;;;1.90;;
12135;SDS011;6131;56.420;15.548;2022-09-29T09:37:19;2.73;;;1.80;;
12135;SDS011;6131;56.420;15.548;2022-09-29T09:39:53;4.67;;;2.20;;
12135;SDS011;6131;56.420;15.548;2022-09-29T09:42:22;2.77;;;2.57;;
12135;SDS011;6131;56.420;15.548;2022-09-29T09:45:33;4.27;;;2.53;;
12135;SDS011;6131;56.420;15.548;2022-09-29T09:50:15;3.07;;;2.63;;
12135;SDS011;6131;56.420;15.548;2022-09-29T09:52:50;3.20;;;2.73;;
12135;SDS011;6131;56.420;15.548;2022-09-29T09:55:17;3.00;;;2.77;;
12135;SDS011;6131;56.420;15.548;2022-09-29T10:00:23;3.07;;;2.77;;
12135;SDS011;6131;56.420;15.548;2022-09-29T10:02:51;4.20;;;2.97;;
12135;SDS011;6131;56.420;15.548;2022-09-29T10:05:20;3.83;;;2.77;;
12135;SDS011;6131;56.420;15.548;2022-09-29T10:07:48;3.60;;;2.60;;
12135;SDS011;6131;56.420;15.548;2022-09-29T10:10:19;4.07;;;2.73;;
12135;SDS011;6131;56.420;15.548;2022-09-29T10:12:46;3.40;;;2.67;;
12135;SDS011;6131;56.420;15.548;2022-09-29T10:15:19;4.10;;;2.80;;
12135;SDS011;6131;56.420;15.548;2022-09-29T10:17:48;2.70;;;2.50;;
12135;SDS011;6131;56.420;15.548;2022-09-29T10:20:27;5.80;;;2.83;;
12135;SDS011;6131;56.420;15.548;2022-09-29T10:22:53;3.20;;;2.60;;
12135;SDS011;6131;56.420;15.548;2022-09-29T10:25:28;4.07;;;2.77;;
12135;SDS011;6131;56.420;15.548;2022-09-29T10:27:54;4.17;;;3.03;;
12135;SDS011;6131;56.420;15.548;2022-09-29T10:30:30;4.87;;;3.37;;
12135;SDS011;6131;56.420;15.548;2022-09-29T10:32:58;6.30;;;3.00;;
12135;SDS011;6131;56.420;15.548;2022-09-29T10:35:36;4.37;;;2.93;;
12135;SDS011;6131;56.420;15.548;2022-09-29T10:38:06;5.73;;;3.43;;
12135;SDS011;6131;56.420;15.548;2022-09-29T10:40:35;4.83;;;3.10;;
12135;SDS011;6131;56.420;15.548;2022-09-29T10:43:16;5.03;;;2.80;;
12135;SDS011;6131;56.420;15.548;2022-09-29T10:45:47;3.93;;;2.73;;
12135;SDS011;6131;56.420;15.548;2022-09-29T10:48:13;4.40;;;2.67;;
12135;SDS011;6131;56.420;15.548;2022-09-29T10:50:50;2.97;;;2.57;;
12135;SDS011;6131;56.420;15.548;2022-09-29T10:56:06;3.07;;;2.73;;
12135;SDS011;6131;56.420;15.548;2022-09-29T10:58:34;4.47;;;2.30;;
12135;SDS011;6131;56.420;15.548;2022-09-29T11:01:11;3.23;;;2.80;;
12135;SDS011;6131;56.420;15.548;2022-09-29T11:03:38;2.43;;;2.23;;
12135;SDS011;6131;56.420;15.548;2022-09-29T11:08:32;6.03;;;2.77;;
12135;SDS011;6131;56.420;15.548;2022-09-29T11:13:34;3.27;;;2.47;;
12135;SDS011;6131;56.420;15.548;2022-09-29T11:16:43;4.47;;;2.60;;
12135;SDS011;6131;56.420;15.548;2022-09-29T11:18:50;3.23;;;2.40;;
12135;SDS011;6131;56.420;15.548;2022-09-29T11:24:04;3.03;;;2.60;;
12135;SDS011;6131;56.420;15.548;2022-09-29T11:34:36;3.23;;;2.70;;
12135;SDS011;6131;56.420;15.548;2022-09-29T11:37:16;2.50;;;2.23;;
12135;SDS011;6131;56.420;15.548;2022-09-29T11:39:49;4.27;;;2.90;;
12135;SDS011;6131;56.420;15.548;2022-09-29T11:57:31;3.67;;;3.03;;
12135;SDS011;6131;56.420;15.548;2022-09-29T12:17:52;3.40;;;2.90;;
12135;SDS011;6131;56.420;15.548;2022-09-29T12:22:49;4.87;;;2.63;;
12135;SDS011;6131;56.420;15.548;2022-09-29T12:25:18;3.80;;;2.90;;
12135;SDS011;6131;56.420;15.548;2022-09-29T12:27:46;4.47;;;3.00;;
12135;SDS011;6131;56.420;15.548;2022-09-29T12:30:20;3.23;;;2.40;;
12135;SDS011;6131;56.420;15.548;2022-09-29T12:32:55;3.70;;;2.77;;
12135;SDS011;6131;56.420;15.548;2022-09-29T12:35:46;3.00;;;2.70;;
12135;SDS011;6131;56.420;15.548;2022-09-29T12:38:21;3.23;;;2.43;;
12135;SDS011;6131;56.420;15.548;2022-09-29T12:41:10;3.40;;;2.70;;
12135;SDS011;6131;56.420;15.548;2022-09-29T12:46:09;3.57;;;2.77;;
12135;SDS011;6131;56.420;15.548;2022-09-29T12:53:53;2.40;;;2.07;;
12135;SDS011;6131;56.420;15.548;2022-09-29T12:56:25;2.30;;;2.00;;
12135;SDS011;6131;56.420;15.548;2022-09-29T12:59:05;2.13;;;1.93;;
12135;SDS011;6131;56.420;15.548;2022-09-29T13:01:34;2.77;;;2.00;;
12135;SDS011;6131;56.420;15.548;2022-09-29T13:11:54;2.53;;;2.30;;
12135;SDS011;6131;56.420;15.548;2022-09-29T13:14:29;2.37;;;1.90;;
12135;SDS011;6131;56.420;15.548;2022-09-29T13:17:12;2.27;;;2.07;;
12135;SDS011;6131;56.420;15.548;2022-09-29T13:19:47;3.47;;;2.50;;
12135;SDS011;6131;56.420;15.548;2022-09-29T13:24:45;2.57;;;2.37;;
12135;SDS011;6131;56.420;15.548;2022-09-29T13:27:21;4.20;;;2.40;;
12135;SDS011;6131;56.420;15.548;2022-09-29T13:29:53;3.43;;;2.30;;
12135;SDS011;6131;56.420;15.548;2022-09-29T13:32:20;2.30;;;2.10;;
12135;SDS011;6131;56.420;15.548;2022-09-29T13:34:51;2.50;;;2.30;;
12135;SDS011;6131;56.420;15.548;2022-09-29T13:37:18;2.87;;;2.40;;
12135;SDS011;6131;56.420;15.548;2022-09-29T13:42:25;2.83;;;2.30;;
12135;SDS011;6131;56.420;15.548;2022-09-29T13:47:51;2.50;;;2.00;;
12135;SDS011;6131;56.420;15.548;2022-09-29T13:55:48;2.63;;;2.43;;
12135;SDS011;6131;56.420;15.548;2022-09-29T13:58:23;3.03;;;2.50;;
12135;SDS011;6131;56.420;15.548;2022-09-29T14:00:50;3.60;;;2.30;;
12135;SDS011;6131;56.420;15.548;2022-09-29T14:08:27;4.00;;;2.30;;
12135;SDS011;6131;56.420;15.548;2022-09-29T14:10:58;3.07;;;2.33;;
12135;SDS011;6131;56.420;15.548;2022-09-29T14:13:30;3.93;;;2.00;;
12135;SDS011;6131;56.420;15.548;2022-09-29T14:18:32;2.07;;;1.83;;
12135;SDS011;6131;56.420;15.548;2022-09-29T14:21:02;2.27;;;2.07;;
12135;SDS011;6131;56.420;15.548;2022-09-29T14:26:40;2.10;;;1.90;;
12135;SDS011;6131;56.420;15.548;2022-09-29T14:29:01;2.67;;;2.30;;
12135;SDS011;6131;56.420;15.548;2022-09-29T14:31:28;3.03;;;2.40;;
12135;SDS011;6131;56.420;15.548;2022-09-29T14:33:55;4.70;;;2.20;;
12135;SDS011;6131;56.420;15.548;2022-09-29T14:36:22;3.53;;;2.30;;
12135;SDS011;6131;56.420;15.548;2022-09-29T14:38:50;3.90;;;2.40;;
12135;SDS011;6131;56.420;15.548;2022-09-29T14:41:29;2.43;;;2.23;;
12135;SDS011;6131;56.420;15.548;2022-09-29T15:00:27;2.97;;;2.30;;
12135;SDS011;6131;56.420;15.548;2022-09-29T15:02:57;3.03;;;2.40;;
12135;SDS011;6131;56.420;15.548;2022-09-29T15:05:27;2.80;;;2.50;;
12135;SDS011;6131;56.420;15.548;2022-09-29T15:07:54;3.27;;;2.33;;
12135;SDS011;6131;56.420;15.548;2022-09-29T15:10:26;2.83;;;2.20;;
12135;SDS011;6131;56.420;15.548;2022-09-29T15:12:52;3.70;;;2.47;;
12135;SDS011;6131;56.420;15.548;2022-09-29T15:15:38;3.37;;;2.47;;
12135;SDS011;6131;56.420;15.548;2022-09-29T15:18:14;2.53;;;2.33;;
12135;SDS011;6131;56.420;15.548;2022-09-29T15:20:50;3.90;;;2.90;;
12135;SDS011;6131;56.420;15.548;2022-09-29T15:26:03;2.63;;;2.43;;
12135;SDS011;6131;56.420;15.548;2022-09-29T15:28:31;2.90;;;2.60;;
12135;SDS011;6131;56.420;15.548;2022-09-29T15:30:59;3.67;;;2.50;;
12135;SDS011;6131;56.420;15.548;2022-09-29T15:33:30;3.87;;;2.70;;
12135;SDS011;6131;56.420;15.548;2022-09-29T15:35:57;4.17;;;2.77;;
12135;SDS011;6131;56.420;15.548;2022-09-29T15:40:55;5.53;;;2.80;;
12135;SDS011;6131;56.420;15.548;2022-09-29T15:43:26;2.80;;;2.60;;
12135;SDS011;6131;56.420;15.548;2022-09-29T15:45:56;3.47;;;2.80;;
12135;SDS011;6131;56.420;15.548;2022-09-29T15:48:27;3.23;;;2.80;;
12135;SDS011;6131;56.420;15.548;2022-09-29T15:50:53;3.83;;;2.60;;
12135;SDS011;6131;56.420;15.548;2022-09-29T15:53:20;3.37;;;2.57;;
12135;SDS011;6131;56.420;15.548;2022-09-29T15:55:48;3.83;;;2.87;;
12135;SDS011;6131;56.420;15.548;2022-09-29T16:01:03;4.33;;;3.20;;
12135;SDS011;6131;56.420;15.548;2022-09-29T16:06:04;3.13;;;2.60;;
12135;SDS011;6131;56.420;15.548;2022-09-29T16:08:32;3.13;;;2.83;;
12135;SDS011;6131;56.420;15.548;2022-09-29T16:11:00;3.97;;;2.70;;
12135;SDS011;6131;56.420;15.548;2022-09-29T16:13:37;3.17;;;2.87;;
12135;SDS011;6131;56.420;15.548;2022-09-29T16:16:08;3.23;;;2.90;;
12135;SDS011;6131;56.420;15.548;2022-09-29T16:21:04;4.83;;;3.00;;
12135;SDS011;6131;56.420;15.548;2022-09-29T16:23:41;3.83;;;2.77;;
12135;SDS011;6131;56.420;15.548;2022-09-29T16:28:37;3.47;;;2.70;;
12135;SDS011;6131;56.420;15.548;2022-09-29T16:31:16;3.97;;;2.70;;
12135;SDS011;6131;56.420;15.548;2022-09-29T16:33:43;4.83;;;3.03;;
12135;SDS011;6131;56.420;15.548;2022-09-29T16:36:13;5.27;;;3.03;;
12135;SDS011;6131;56.420;15.548;2022-09-29T16:38:43;4.00;;;2.63;;
12135;SDS011;6131;56.420;15.548;2022-09-29T16:43:35;3.17;;;2.87;;
12135;SDS011;6131;56.420;15.548;2022-09-29T16:46:06;4.80;;;3.30;;
12135;SDS011;6131;56.420;15.548;2022-09-29T16:48:35;5.07;;;2.90;;
12135;SDS011;6131;56.420;15.548;2022-09-29T16:51:04;3.60;;;2.60;;
12135;SDS011;6131;56.420;15.548;2022-09-29T16:53:32;3.30;;;2.60;;
12135;SDS011;6131;56.420;15.548;2022-09-29T16:55:59;4.03;;;3.00;;
12135;SDS011;6131;56.420;15.548;2022-09-29T16:58:26;3.33;;;3.03;;
12135;SDS011;6131;56.420;15.548;2022-09-29T17:00:52;6.03;;;2.80;;
12135;SDS011;6131;56.420;15.548;2022-09-29T17:03:18;3.50;;;2.70;;
12135;SDS011;6131;56.420;15.548;2022-09-29T17:05:44;4.30;;;3.13;;
12135;SDS011;6131;56.420;15.548;2022-09-29T17:08:17;3.67;;;2.90;;
12135;SDS011;6131;56.420;15.548;2022-09-29T17:10:46;3.47;;;3.03;;
12135;SDS011;6131;56.420;15.548;2022-09-29T17:13:12;3.20;;;2.90;;
12135;SDS011;6131;56.420;15.548;2022-09-29T17:15:38;5.47;;;3.00;;
12135;SDS011;6131;56.420;15.548;2022-09-29T17:18:07;3.30;;;3.00;;
12135;SDS011;6131;56.420;15.548;2022-09-29T17:20:35;3.67;;;3.07;;
12135;SDS011;6131;56.420;15.548;2022-09-29T17:23:01;3.50;;;3.20;;
12135;SDS011;6131;56.420;15.548;2022-09-29T17:25:28;3.57;;;3.03;;
12135;SDS011;6131;56.420;15.548;2022-09-29T17:27:54;6.53;;;3.30;;
12135;SDS011;6131;56.420;15.548;2022-09-29T17:30:36;3.80;;;3.20;;
12135;SDS011;6131;56.420;15.548;2022-09-29T17:33:02;4.20;;;3.30;;
12135;SDS011;6131;56.420;15.548;2022-09-29T17:35:30;4.93;;;3.50;;
12135;SDS011;6131;56.420;15.548;2022-09-29T17:37:57;4.53;;;3.57;;
12135;SDS011;6131;56.420;15.548;2022-09-29T17:40:33;3.57;;;2.93;;
12135;SDS011;6131;56.420;15.548;2022-09-29T17:43:00;5.97;;;3.07;;
12135;SDS011;6131;56.420;15.548;2022-09-29T17:45:27;3.43;;;3.10;;
12135;SDS011;6131;56.420;15.548;2022-09-29T17:47:54;5.33;;;3.13;;
12135;SDS011;6131;56.420;15.548;2022-09-29T17:50:26;3.23;;;2.93;;
12135;SDS011;6131;56.420;15.548;2022-09-29T17:52:54;3.10;;;2.80;;
12135;SDS011;6131;56.420;15.548;2022-09-29T17:55:20;4.80;;;3.17;;
12135;SDS011;6131;56.420;15.548;2022-09-29T17:57:49;4.23;;;2.67;;
12135;SDS011;6131;56.420;15.548;2022-09-29T18:00:21;3.50;;;2.83;;
12135;SDS011;6131;56.420;15.548;2022-09-29T18:02:48;3.90;;;3.23;;